Time;durP1;ratioP1;P1;durP2;ratioP2;P2;SDS_P1;SDS_P2;PMS_P1;PMS_P2;Temp;Humidity;BMP_temperature;BMP_pressure;BME280_temperature;BME280_humidity;BME280_pressure;Samples;Min_cycle;Max_cycle;Signal;HPM_P1;HPM_P2
2022/05/16 00:00:16;;;;;;;10.73;5.28;;;13.20;99.90;;;;;;5027397;28;20045;-76
2022/05/16 00:02:42;;;;;;;12.40;4.85;;;13.10;99.90;;;;;;5051915;28;20464;-76
2022/05/16 00:05:08;;;;;;;15.18;4.93;;;13.10;99.90;;;;;;5024348;28;20519;-76
2022/05/16 00:07:35;;;;;;;15.43;4.93;;;13.10;99.90;;;;;;5016246;28;20042;-76
2022/05/16 00:10:00;;;;;;;13.90;5.38;;;13.10;99.90;;;;;;5021596;28;20038;-76
2022/05/16 00:12:29;;;;;;;11.48;5.40;;;13.10;99.90;;;;;;5025451;28;20507;-76
2022/05/16 00:14:54;;;;;;;9.65;4.57;;;13.00;99.90;;;;;;5026885;28;20215;-76
2022/05/16 00:17:20;;;;;;;12.25;4.55;;;13.00;99.90;;;;;;5029677;28;20124;-76
2022/05/16 00:19:46;;;;;;;13.07;4.85;;;13.00;99.90;;;;;;5030005;28;20037;-76
2022/05/16 00:22:11;;;;;;;9.80;4.28;;;13.00;99.90;;;;;;5029304;28;20045;-76
2022/05/16 00:24:44;;;;;;;11.02;4.95;;;12.90;99.90;;;;;;5020572;28;20041;-76
2022/05/16 00:27:11;;;;;;;11.93;4.95;;;12.90;99.90;;;;;;5018038;28;20087;-76
2022/05/16 00:29:38;;;;;;;16.80;4.90;;;12.90;99.90;;;;;;5024200;28;20049;-76
2022/05/16 00:32:04;;;;;;;12.35;3.97;;;13.00;99.90;;;;;;5019303;28;20517;-76
2022/05/16 00:34:30;;;;;;;15.45;4.78;;;12.90;99.90;;;;;;5028660;28;20056;-76
2022/05/16 00:36:55;;;;;;;13.52;4.97;;;12.90;99.90;;;;;;5027821;28;20053;-76
2022/05/16 00:39:21;;;;;;;11.60;4.97;;;12.90;99.90;;;;;;5027174;28;20065;-76
2022/05/16 00:41:49;;;;;;;13.82;4.60;;;12.90;99.90;;;;;;5026349;28;20135;-76
2022/05/16 00:44:15;;;;;;;9.15;4.53;;;12.90;99.90;;;;;;5026543;28;20602;-76
2022/05/16 00:46:41;;;;;;;8.30;4.35;;;12.90;99.90;;;;;;5025447;28;20049;-77
2022/05/16 00:49:21;;;;;;;11.80;4.53;;;12.80;99.90;;;;;;5022471;28;20048;-77
2022/05/16 00:52:09;;;;;;;9.20;4.50;;;12.80;99.90;;;;;;5056657;28;20057;-76
2022/05/16 00:55:03;;;;;;;11.68;3.83;;;12.80;99.90;;;;;;5025752;28;20115;-76
2022/05/16 00:57:38;;;;;;;9.35;4.55;;;12.80;99.90;;;;;;5020325;28;20497;-76
2022/05/16 01:00:15;;;;;;;16.92;5.00;;;12.80;99.90;;;;;;5020384;28;20084;-76
2022/05/16 01:05:29;;;;;;;8.73;3.75;;;12.80;99.90;;;;;;5038100;28;20124;-77
2022/05/16 01:08:01;;;;;;;11.70;4.57;;;12.80;99.90;;;;;;5025922;28;20140;-77
2022/05/16 01:10:27;;;;;;;9.10;4.10;;;12.80;99.90;;;;;;5054008;28;20076;-76
2022/05/16 01:12:54;;;;;;;8.63;4.32;;;12.70;99.90;;;;;;5022972;28;20053;-76
2022/05/16 01:15:44;;;;;;;8.90;3.65;;;12.70;99.90;;;;;;5024662;28;20128;-76
2022/05/16 01:18:15;;;;;;;8.00;4.18;;;12.70;99.90;;;;;;5022507;28;20128;-76
2022/05/16 01:20:56;;;;;;;9.98;4.28;;;12.70;99.90;;;;;;5025774;28;20053;-77
2022/05/16 01:23:25;;;;;;;10.77;4.18;;;12.70;99.90;;;;;;5023149;28;20042;-76
2022/05/16 01:25:52;;;;;;;6.85;3.40;;;12.70;99.90;;;;;;5026072;28;20030;-76
2022/05/16 01:28:22;;;;;;;9.52;3.95;;;12.60;99.90;;;;;;5023805;28;20489;-77
2022/05/16 01:30:47;;;;;;;10.32;4.53;;;12.70;99.90;;;;;;5024577;28;20152;-76
2022/05/16 01:33:15;;;;;;;9.07;3.85;;;12.70;99.90;;;;;;5023101;28;20493;-76
2022/05/16 01:35:41;;;;;;;6.38;4.10;;;12.60;99.90;;;;;;5022449;28;20482;-76
2022/05/16 01:38:18;;;;;;;8.30;4.10;;;12.60;99.90;;;;;;5024286;28;20038;-76
2022/05/16 01:40:54;;;;;;;11.45;3.97;;;12.60;99.90;;;;;;5024381;28;20050;-76
2022/05/16 01:43:22;;;;;;;8.93;3.50;;;12.50;99.90;;;;;;5026729;28;20050;-76
2022/05/16 01:45:48;;;;;;;7.15;3.63;;;12.50;99.90;;;;;;5021305;28;20074;-77
2022/05/16 01:48:15;;;;;;;9.45;3.92;;;12.50;99.90;;;;;;5017419;28;20140;-76
2022/05/16 01:50:43;;;;;;;7.45;3.70;;;12.50;99.90;;;;;;5022651;28;20087;-76
2022/05/16 01:53:10;;;;;;;8.05;3.70;;;12.50;99.90;;;;;;5023833;28;20076;-76
2022/05/16 01:55:36;;;;;;;9.45;3.60;;;12.40;99.90;;;;;;5027692;28;20049;-77
2022/05/16 01:58:03;;;;;;;7.68;3.90;;;12.40;99.90;;;;;;5031203;28;20175;-77
2022/05/16 02:00:30;;;;;;;8.60;3.72;;;12.40;99.90;;;;;;5026047;28;20374;-76
2022/05/16 02:02:56;;;;;;;7.45;3.28;;;12.40;99.90;;;;;;5028124;28;20064;-76
2022/05/16 02:05:23;;;;;;;7.85;3.08;;;12.40;99.90;;;;;;5029800;28;20480;-76
2022/05/16 02:07:50;;;;;;;5.65;2.80;;;12.30;99.90;;;;;;5030201;28;20037;-76
2022/05/16 02:10:18;;;;;;;7.63;3.25;;;12.30;99.90;;;;;;5030004;28;20099;-76
2022/05/16 02:12:44;;;;;;;6.70;2.95;;;12.30;99.90;;;;;;5026825;28;20045;-76
2022/05/16 02:15:14;;;;;;;9.35;3.30;;;12.30;99.90;;;;;;5029789;28;20042;-76
2022/05/16 02:17:39;;;;;;;6.05;2.80;;;12.30;99.90;;;;;;5023356;28;20052;-76
2022/05/16 02:20:06;;;;;;;7.55;3.17;;;12.20;99.90;;;;;;5021924;28;20045;-77
2022/05/16 02:25:17;;;;;;;6.60;2.92;;;12.20;99.90;;;;;;5032120;28;20482;-77
2022/05/16 02:27:43;;;;;;;8.02;2.38;;;12.20;99.90;;;;;;5025620;28;20057;-76
2022/05/16 02:30:10;;;;;;;8.85;2.63;;;12.20;99.90;;;;;;5027866;28;20080;-76
2022/05/16 02:32:36;;;;;;;5.28;2.55;;;12.20;99.90;;;;;;5029260;28;20050;-76
2022/05/16 02:35:02;;;;;;;9.60;3.55;;;12.10;99.90;;;;;;5027712;28;20050;-76
2022/05/16 02:37:28;;;;;;;7.68;2.70;;;12.10;99.90;;;;;;5031460;28;20061;-76
2022/05/16 02:39:56;;;;;;;12.52;2.92;;;12.10;99.90;;;;;;5026724;28;20124;-76
2022/05/16 02:42:22;;;;;;;6.15;2.80;;;12.10;99.90;;;;;;5029298;28;20084;-76
2022/05/16 02:44:48;;;;;;;6.70;2.25;;;12.10;99.90;;;;;;5026876;28;20469;-76
2022/05/16 02:47:16;;;;;;;6.43;2.80;;;12.00;99.90;;;;;;5030316;28;20073;-76
2022/05/16 02:49:44;;;;;;;7.78;3.10;;;12.10;99.90;;;;;;5029326;28;20049;-76
2022/05/16 02:52:10;;;;;;;5.70;2.40;;;12.00;99.90;;;;;;5029624;28;20096;-76
2022/05/16 02:54:36;;;;;;;7.95;2.67;;;12.00;99.90;;;;;;5021370;28;20050;-76
2022/05/16 02:57:15;;;;;;;6.40;2.15;;;12.00;99.90;;;;;;5024484;28;20073;-76
2022/05/16 02:59:41;;;;;;;6.35;2.20;;;12.20;99.90;;;;;;5025364;28;20037;-76
2022/05/16 03:02:08;;;;;;;8.77;2.45;;;12.00;99.90;;;;;;5028502;28;20451;-77
2022/05/16 03:04:35;;;;;;;4.93;2.20;;;11.90;99.90;;;;;;5028997;28;20049;-76
2022/05/16 03:07:01;;;;;;;7.85;2.53;;;12.00;99.90;;;;;;5026514;28;21035;-76
2022/05/16 03:09:28;;;;;;;6.20;2.15;;;11.90;99.90;;;;;;5057599;28;20056;-76
2022/05/16 03:11:54;;;;;;;6.97;2.30;;;11.90;99.90;;;;;;5024432;28;20053;-76
2022/05/16 03:14:20;;;;;;;5.68;2.10;;;11.90;99.90;;;;;;5030184;28;20099;-76
2022/05/16 03:16:46;;;;;;;5.18;2.13;;;11.90;99.90;;;;;;5058977;28;20057;-76
2022/05/16 03:19:13;;;;;;;5.90;1.90;;;11.90;99.90;;;;;;5028104;28;20053;-77
2022/05/16 03:21:38;;;;;;;8.35;2.30;;;11.90;99.90;;;;;;5029398;28;20038;-77
2022/05/16 03:24:06;;;;;;;5.63;2.08;;;11.90;99.90;;;;;;5021896;28;20540;-77
2022/05/16 03:26:31;;;;;;;4.22;1.80;;;11.90;99.90;;;;;;5030432;28;20081;-76
2022/05/16 03:28:57;;;;;;;3.55;1.63;;;11.90;99.90;;;;;;5022093;28;20084;-75
2022/05/16 03:31:23;;;;;;;5.35;2.15;;;11.90;99.90;;;;;;5028214;28;20529;-75
2022/05/16 03:33:48;;;;;;;5.45;1.75;;;11.90;99.90;;;;;;5028566;28;20045;-76
2022/05/16 03:36:14;;;;;;;7.15;2.00;;;11.80;99.90;;;;;;5018989;28;20049;-76
2022/05/16 03:41:27;;;;;;;6.10;1.85;;;11.90;99.90;;;;;;5028562;28;20388;-76
2022/05/16 03:43:55;;;;;;;4.95;1.92;;;11.80;99.90;;;;;;5024609;28;20042;-76
2022/05/16 03:46:21;;;;;;;7.20;2.15;;;11.80;99.90;;;;;;5028197;28;20099;-76
2022/05/16 03:48:49;;;;;;;9.88;2.13;;;11.80;99.90;;;;;;5028401;28;20492;-76
2022/05/16 03:51:15;;;;;;;6.10;1.73;;;11.80;99.90;;;;;;5030700;28;20046;-76
2022/05/16 03:53:47;;;;;;;5.50;1.98;;;11.80;99.90;;;;;;5026022;28;20056;-75
2022/05/16 03:56:15;;;;;;;6.40;2.03;;;11.80;99.90;;;;;;5027155;28;20522;-76
2022/05/16 03:58:40;;;;;;;6.07;2.55;;;11.80;99.90;;;;;;5054609;28;20400;-75
2022/05/16 04:01:06;;;;;;;7.40;2.20;;;11.80;99.90;;;;;;5021552;28;20045;-76
2022/05/16 04:03:32;;;;;;;6.95;2.08;;;11.80;99.90;;;;;;5023113;28;20045;-76
2022/05/16 04:06:00;;;;;;;9.02;2.45;;;11.80;99.90;;;;;;5016515;28;20093;-76
2022/05/16 04:08:26;;;;;;;7.38;2.30;;;11.80;99.90;;;;;;5059808;28;20085;-76
2022/05/16 04:10:52;;;;;;;4.70;1.80;;;11.70;99.90;;;;;;5023437;28;20046;-77
2022/05/16 04:13:17;;;;;;;5.30;1.88;;;11.80;99.90;;;;;;5022187;28;20048;-75
2022/05/16 04:15:43;;;;;;;6.22;2.10;;;11.70;99.90;;;;;;5016943;28;20056;-76
2022/05/16 04:18:09;;;;;;;6.60;2.20;;;11.80;99.90;;;;;;5027204;28;20042;-76
2022/05/16 04:20:34;;;;;;;5.32;1.90;;;11.80;99.90;;;;;;5023325;28;20045;-76
2022/05/16 04:23:00;;;;;;;6.35;2.15;;;11.80;99.90;;;;;;5024675;28;20041;-75
2022/05/16 04:25:26;;;;;;;7.60;3.05;;;11.80;99.90;;;;;;5018222;28;20058;-76
2022/05/16 04:27:51;;;;;;;3.55;1.58;;;11.80;99.90;;;;;;5018406;28;20050;-76
2022/05/16 04:30:17;;;;;;;7.15;2.30;;;11.80;99.90;;;;;;5026778;28;20054;-76
2022/05/16 04:32:43;;;;;;;5.95;2.15;;;11.90;99.90;;;;;;5024747;28;20049;-76
2022/05/16 04:35:09;;;;;;;5.70;2.20;;;11.90;99.90;;;;;;5022421;28;20134;-76
2022/05/16 04:37:35;;;;;;;6.40;2.03;;;11.90;99.90;;;;;;5059874;28;20124;-76
2022/05/16 04:40:03;;;;;;;5.90;1.80;;;11.90;99.90;;;;;;5027224;28;20061;-76
2022/05/16 04:42:41;;;;;;;5.43;2.10;;;12.00;99.90;;;;;;5029951;28;20119;-76
2022/05/16 04:45:19;;;;;;;9.18;2.20;;;12.00;99.90;;;;;;5028644;28;20041;-75
2022/05/16 04:47:46;;;;;;;9.00;2.22;;;12.00;99.90;;;;;;5027416;28;20087;-76
2022/05/16 04:50:15;;;;;;;6.80;1.98;;;12.00;99.90;;;;;;5024491;28;20122;-75
2022/05/16 04:52:41;;;;;;;5.95;2.00;;;12.00;99.90;;;;;;5025027;28;20081;-75
2022/05/16 04:55:07;;;;;;;5.07;1.90;;;12.00;99.90;;;;;;5027269;28;20075;-75
2022/05/16 04:57:33;;;;;;;5.45;2.17;;;12.10;99.90;;;;;;5026150;28;20103;-76
2022/05/16 04:59:59;;;;;;;7.05;2.10;;;12.10;99.90;;;;;;5028495;28;20049;-75
2022/05/16 05:02:25;;;;;;;5.88;1.80;;;12.10;99.90;;;;;;5023731;28;20489;-75
2022/05/16 05:04:52;;;;;;;5.45;2.40;;;12.10;99.90;;;;;;5024959;28;20049;-75
2022/05/16 05:07:19;;;;;;;6.70;2.17;;;12.10;99.90;;;;;;5039953;28;20053;-76
2022/05/16 05:15:15;;;;;;;6.90;2.20;;;12.30;99.90;;;;;;5025612;28;20098;-74
2022/05/16 05:17:42;;;;;;;8.35;2.42;;;12.40;99.90;;;;;;5041811;28;20459;-74
2022/05/16 05:20:13;;;;;;;6.18;2.40;;;12.40;99.90;;;;;;5025859;28;20051;-74
2022/05/16 05:22:40;;;;;;;7.45;2.58;;;12.50;99.90;;;;;;5056068;28;20401;-73
2022/05/16 05:25:07;;;;;;;5.72;2.30;;;12.40;99.90;;;;;;5020858;28;20513;-74
2022/05/16 05:27:36;;;;;;;8.00;2.60;;;12.60;99.90;;;;;;5022063;28;20665;-74
2022/05/16 05:30:01;;;;;;;5.40;2.50;;;12.70;99.90;;;;;;5025060;28;20048;-74
2022/05/16 05:32:27;;;;;;;6.57;2.88;;;12.80;99.90;;;;;;5027771;28;20057;-73
2022/05/16 05:34:54;;;;;;;5.75;2.28;;;12.80;99.90;;;;;;5023050;28;20056;-76
2022/05/16 05:37:25;;;;;;;7.10;2.83;;;12.90;99.90;;;;;;5022188;28;20064;-76
2022/05/16 05:39:52;;;;;;;5.82;2.85;;;12.90;99.90;;;;;;5024000;28;20060;-76
2022/05/16 05:42:18;;;;;;;7.18;2.47;;;13.00;99.90;;;;;;5024994;28;20053;-77
2022/05/16 05:44:44;;;;;;;7.20;2.67;;;13.10;99.90;;;;;;5021287;28;20060;-76
2022/05/16 05:47:09;;;;;;;6.82;2.90;;;13.20;99.90;;;;;;5028111;28;20064;-75
2022/05/16 05:49:36;;;;;;;7.47;2.67;;;13.30;99.90;;;;;;5015271;28;20041;-76
2022/05/16 05:52:02;;;;;;;5.65;2.25;;;13.40;99.90;;;;;;5026960;28;20045;-76
2022/05/16 05:54:28;;;;;;;7.93;2.40;;;13.40;99.90;;;;;;5023897;28;20128;-76
2022/05/16 05:56:54;;;;;;;8.20;2.45;;;13.70;99.90;;;;;;5017610;28;20133;-76
2022/05/16 05:59:20;;;;;;;6.78;2.35;;;13.50;99.90;;;;;;5024081;28;20060;-74
2022/05/16 06:01:46;;;;;;;6.85;2.72;;;13.50;99.90;;;;;;5027202;28;20049;-76
2022/05/16 06:04:11;;;;;;;12.27;2.80;;;13.50;99.90;;;;;;5024209;28;20045;-74
2022/05/16 06:06:37;;;;;;;7.40;2.80;;;13.50;99.90;;;;;;5020147;28;20046;-73
2022/05/16 06:09:03;;;;;;;8.43;2.67;;;13.60;99.90;;;;;;5026382;28;20038;-74
2022/05/16 06:11:28;;;;;;;8.88;3.08;;;13.70;99.90;;;;;;5023887;28;20179;-71
2022/05/16 06:13:55;;;;;;;8.85;2.97;;;13.70;99.90;;;;;;5027890;28;20049;-71
2022/05/16 06:16:21;;;;;;;9.38;2.97;;;13.80;99.90;;;;;;5026490;28;20049;-73
2022/05/16 06:18:46;;;;;;;5.68;2.83;;;13.80;99.90;;;;;;5027456;28;20099;-74
2022/05/16 06:21:12;;;;;;;10.98;2.72;;;13.90;99.90;;;;;;5025844;28;20041;-73
2022/05/16 06:23:38;;;;;;;6.53;2.80;;;13.90;99.90;;;;;;5023468;28;20095;-71
2022/05/16 06:26:03;;;;;;;6.75;2.78;;;13.90;99.90;;;;;;5037421;28;20033;-72
2022/05/16 06:28:31;;;;;;;6.93;3.10;;;13.90;99.90;;;;;;5022440;28;20099;-71
2022/05/16 06:30:56;;;;;;;7.07;2.70;;;13.90;99.90;;;;;;5023006;28;20058;-72
2022/05/16 06:33:29;;;;;;;7.97;2.83;;;13.90;99.90;;;;;;5020401;28;20052;-71
2022/05/16 06:35:55;;;;;;;8.32;2.78;;;13.90;99.90;;;;;;5044530;28;20041;-72
2022/05/16 06:38:24;;;;;;;8.90;2.60;;;13.90;99.90;;;;;;5023218;28;20556;-72
2022/05/16 06:40:50;;;;;;;7.38;2.80;;;13.90;99.90;;;;;;5036993;28;20057;-71
2022/05/16 06:43:18;;;;;;;9.25;2.83;;;14.00;99.90;;;;;;5027430;28;20132;-71
2022/05/16 06:45:44;;;;;;;6.60;2.78;;;14.00;99.90;;;;;;5026878;28;20392;-72
2022/05/16 06:48:10;;;;;;;8.38;3.20;;;14.10;99.90;;;;;;5026124;28;20056;-71
2022/05/16 06:50:36;;;;;;;10.38;2.72;;;14.20;99.90;;;;;;5021813;28;20037;-73
2022/05/16 06:53:06;;;;;;;10.82;3.25;;;14.30;99.90;;;;;;5026506;28;20390;-72
2022/05/16 06:55:32;;;;;;;7.75;3.03;;;14.40;99.90;;;;;;5028242;28;20057;-71
2022/05/16 06:57:57;;;;;;;9.10;3.63;;;14.50;99.90;;;;;;5029617;28;20456;-72
2022/05/16 07:00:26;;;;;;;12.00;3.28;;;14.50;99.90;;;;;;5024827;28;20072;-72
2022/05/16 07:02:51;;;;;;;10.95;2.83;;;14.60;99.90;;;;;;5028131;28;20080;-72
2022/05/16 07:05:17;;;;;;;9.68;3.05;;;14.70;99.90;;;;;;5023604;28;20037;-71
2022/05/16 07:07:43;;;;;;;7.55;2.70;;;14.70;99.90;;;;;;5028137;28;20843;-72
2022/05/16 07:10:08;;;;;;;9.65;3.20;;;15.10;99.90;;;;;;5031935;28;20048;-72
2022/05/16 07:12:34;;;;;;;11.98;3.15;;;15.10;99.90;;;;;;5037667;28;20041;-71
2022/05/16 07:15:00;;;;;;;11.05;3.35;;;15.40;99.90;;;;;;5024257;28;20056;-72
2022/05/16 07:17:25;;;;;;;8.15;2.80;;;15.70;99.90;;;;;;5031158;28;20583;-71
2022/05/16 07:19:51;;;;;;;8.10;2.65;;;16.00;99.90;;;;;;5025925;28;20053;-72
2022/05/16 07:22:22;;;;;;;8.15;2.90;;;16.30;99.90;;;;;;5031049;28;20125;-72
2022/05/16 07:24:48;;;;;;;8.75;2.97;;;16.60;99.90;;;;;;5025595;28;20042;-71
2022/05/16 07:29:58;;;;;;;7.30;2.65;;;17.10;99.90;;;;;;5020381;28;20412;-71
2022/05/16 07:32:24;;;;;;;8.85;3.20;;;17.30;99.90;;;;;;5026612;28;20056;-72
2022/05/16 07:34:50;;;;;;;13.80;3.40;;;17.60;99.90;;;;;;5030878;28;20053;-72
2022/05/16 07:37:15;;;;;;;9.27;3.13;;;17.70;99.90;;;;;;5030127;28;20519;-72
2022/05/16 07:39:41;;;;;;;9.95;2.78;;;17.80;99.90;;;;;;5022030;28;20041;-72
2022/05/16 07:42:09;;;;;;;11.07;3.22;;;18.00;99.90;;;;;;5029269;28;20077;-71
2022/05/16 07:44:37;;;;;;;9.13;2.95;;;18.10;99.90;;;;;;5022172;28;20405;-72
2022/05/16 07:47:03;;;;;;;8.85;2.88;;;18.20;99.90;;;;;;5031676;28;20053;-72
2022/05/16 07:49:29;;;;;;;8.90;3.00;;;18.30;99.90;;;;;;5023538;28;20055;-72
2022/05/16 07:51:54;;;;;;;7.32;2.17;;;18.50;99.90;;;;;;5033796;28;20045;-72
2022/05/16 07:54:20;;;;;;;10.18;2.78;;;18.60;99.90;;;;;;5020790;28;20396;-72
2022/05/16 07:56:46;;;;;;;8.73;2.78;;;18.60;99.90;;;;;;5026182;28;20512;-72
2022/05/16 07:59:12;;;;;;;9.88;2.90;;;18.70;99.90;;;;;;5029616;28;20046;-72
2022/05/16 08:01:38;;;;;;;12.65;2.85;;;18.70;99.90;;;;;;5034601;28;20087;-72
2022/05/16 08:04:06;;;;;;;8.65;2.80;;;18.80;99.90;;;;;;5029219;28;20045;-72
2022/05/16 08:06:35;;;;;;;9.63;3.30;;;18.80;99.90;;;;;;5034213;28;20045;-72
2022/05/16 08:11:46;;;;;;;11.32;3.15;;;19.00;99.90;;;;;;5033888;28;20057;-72
2022/05/16 08:14:12;;;;;;;11.55;3.25;;;19.10;99.90;;;;;;5028308;28;20049;-72
2022/05/16 08:16:39;;;;;;;11.15;2.83;;;19.20;99.90;;;;;;5027488;28;20055;-71
2022/05/16 08:19:05;;;;;;;9.18;2.97;;;19.30;99.90;;;;;;5061458;28;20133;-72
2022/05/16 08:21:30;;;;;;;12.38;2.55;;;19.50;99.80;;;;;;5029097;28;20116;-73
2022/05/16 08:23:56;;;;;;;8.07;2.47;;;19.60;99.60;;;;;;5022418;28;20103;-72
2022/05/16 08:26:21;;;;;;;10.00;3.20;;;19.80;99.30;;;;;;5030304;28;20075;-72
2022/05/16 08:28:47;;;;;;;7.72;2.88;;;19.90;99.10;;;;;;5030413;28;20469;-72
2022/05/16 08:31:13;;;;;;;9.20;2.85;;;20.00;98.70;;;;;;5021083;28;20497;-72
2022/05/16 08:33:40;;;;;;;8.70;2.92;;;20.10;98.60;;;;;;5029870;28;20076;-72
2022/05/16 08:41:51;;;;;;;9.80;2.70;;;20.70;98.00;;;;;;5048901;28;20408;-73
2022/05/16 08:44:38;;;;;;;8.32;2.42;;;20.90;97.10;;;;;;5029651;28;20479;-73
2022/05/16 08:47:43;;;;;;;10.40;2.70;;;21.10;96.50;;;;;;5028966;28;20187;-73
2022/05/16 08:50:13;;;;;;;;;;;21.30;96.40;;;;;;5036467;28;20046;-73
2022/05/16 08:52:44;;;;;;;7.88;2.35;;;21.50;95.80;;;;;;5024215;28;20468;-73
2022/05/16 08:55:19;;;;;;;6.63;2.58;;;21.60;96.50;;;;;;5032214;28;20046;-73
2022/05/16 08:57:49;;;;;;;8.32;2.90;;;21.80;96.10;;;;;;5021775;28;20038;-72
2022/05/16 09:00:23;;;;;;;7.22;2.60;;;22.00;95.20;;;;;;5020046;28;20041;-71
2022/05/16 09:02:52;;;;;;;9.18;2.65;;;22.20;94.80;;;;;;5020667;28;20046;-72
2022/05/16 09:05:40;;;;;;;9.30;2.72;;;22.40;94.60;;;;;;5027134;28;20493;-72
2022/05/16 09:08:10;;;;;;;10.00;2.35;;;22.60;93.50;;;;;;5022105;28;20063;-72
2022/05/16 09:10:54;;;;;;;7.53;2.35;;;22.70;93.30;;;;;;5019866;28;20066;-73
2022/05/16 09:13:42;;;;;;;8.85;2.58;;;22.80;93.40;;;;;;5030775;28;20384;-75
2022/05/16 09:16:32;;;;;;;9.90;2.35;;;22.90;92.80;;;;;;5060882;28;20077;-75
2022/05/16 09:19:17;;;;;;;7.45;2.55;;;23.00;93.10;;;;;;5028902;28;20049;-74
2022/05/16 09:22:11;;;;;;;15.10;2.83;;;23.10;92.80;;;;;;5025916;28;20388;-74
2022/05/16 09:25:06;;;;;;;6.80;2.63;;;23.30;91.40;;;;;;5019071;28;20049;-73
2022/05/16 09:30:23;;;;;;;9.20;2.53;;;23.60;91.10;;;;;;5027002;28;20050;-74
2022/05/16 09:33:02;;;;;;;7.30;2.30;;;23.70;91.70;;;;;;5029143;28;20129;-74
2022/05/16 09:36:01;;;;;;;9.30;2.58;;;23.80;91.30;;;;;;5028794;28;20045;-74
2022/05/16 09:38:26;;;;;;;10.25;2.50;;;23.90;90.10;;;;;;5013945;28;20108;-74
2022/05/16 09:41:01;;;;;;;7.40;2.33;;;23.90;90.20;;;;;;5025331;28;20046;-74
2022/05/16 09:43:39;;;;;;;11.95;2.60;;;24.00;89.80;;;;;;5044892;28;20088;-73
2022/05/16 09:46:22;;;;;;;12.57;2.70;;;23.90;88.90;;;;;;5026729;28;20052;-74
2022/05/16 09:49:05;;;;;;;9.05;2.40;;;23.90;88.60;;;;;;5017241;28;20389;-74
2022/05/16 09:51:40;;;;;;;11.23;2.80;;;23.90;89.10;;;;;;5034344;28;20752;-74
2022/05/16 09:54:10;;;;;;;;;;;23.90;89.30;;;;;;5031746;28;20501;-74
2022/05/16 09:56:36;;;;;;;11.43;2.70;;;23.80;88.90;;;;;;5028882;28;19925;-73
2022/05/16 09:59:03;;;;;;;8.80;2.10;;;23.80;90.20;;;;;;5025081;28;20041;-73
2022/05/16 10:01:38;;;;;;;10.57;2.60;;;23.90;90.40;;;;;;5028776;28;20049;-73
2022/05/16 10:04:21;;;;;;;11.00;2.63;;;24.00;89.30;;;;;;5027801;28;20049;-73
2022/05/16 10:07:00;;;;;;;9.07;2.22;;;24.00;87.50;;;;;;5046827;28;20057;-73
2022/05/16 10:09:44;;;;;;;9.95;2.50;;;24.10;88.50;;;;;;5029847;28;20049;-73
2022/05/16 10:12:14;;;;;;;8.32;2.40;;;24.20;89.80;;;;;;5022388;28;20038;-73
2022/05/16 10:14:41;;;;;;;12.30;2.33;;;24.40;89.10;;;;;;5027471;28;20489;-74
2022/05/16 10:17:10;;;;;;;8.75;2.40;;;24.60;88.10;;;;;;5022878;28;20139;-74
2022/05/16 10:19:39;;;;;;;12.45;2.20;;;24.60;86.30;;;;;;5024270;28;20164;-74
2022/05/16 10:22:19;;;;;;;9.48;2.15;;;24.70;85.80;;;;;;5031982;28;20064;-74
2022/05/16 10:24:52;;;;;;;11.00;2.33;;;24.70;85.20;;;;;;5026268;28;20042;-73
2022/05/16 10:27:28;;;;;;;9.45;2.25;;;24.70;85.50;;;;;;5030967;28;20515;-74
2022/05/16 10:29:56;;;;;;;9.77;2.85;;;24.80;85.60;;;;;;5046576;28;20525;-73
2022/05/16 10:35:38;;;;;;;11.38;3.38;;;24.80;82.90;;;;;;5032615;28;20496;-74
2022/05/16 10:38:37;;;;;;;5.78;1.98;;;25.00;83.60;;;;;;5033315;28;20041;-75
2022/05/16 10:41:12;;;;;;;7.28;2.30;;;25.10;82.30;;;;;;5020649;28;20064;-74
2022/05/16 10:44:20;;;;;;;7.95;2.38;;;25.20;83.10;;;;;;5024482;28;20068;-74
2022/05/16 10:46:56;;;;;;;12.43;2.60;;;25.30;82.70;;;;;;5014144;28;20060;-75
2022/05/16 10:49:28;;;;;;;11.90;2.55;;;25.40;83.00;;;;;;5036657;28;20494;-74
2022/05/16 10:52:06;;;;;;;7.45;1.90;;;25.60;82.10;;;;;;5031781;28;20401;-74
2022/05/16 10:54:33;;;;;;;7.95;1.88;;;25.60;82.40;;;;;;5034756;28;20053;-75
2022/05/16 10:57:33;;;;;;;6.65;2.20;;;25.70;82.90;;;;;;5034274;28;20041;-75
2022/05/16 11:00:14;;;;;;;9.63;2.35;;;25.70;81.50;;;;;;5030565;28;20068;-74
2022/05/16 11:03:08;;;;;;;8.80;2.75;;;25.70;81.90;;;;;;5024550;28;20069;-74
2022/05/16 11:06:01;;;;;;;7.45;2.33;;;25.80;80.30;;;;;;5027727;28;20041;-75
2022/05/16 11:08:46;;;;;;;5.30;1.90;;;26.00;79.60;;;;;;5052764;28;20092;-74
2022/05/16 11:11:30;;;;;;;7.22;2.10;;;26.00;79.70;;;;;;5019305;28;20048;-74
2022/05/16 11:14:15;;;;;;;8.73;2.20;;;26.20;80.00;;;;;;5023305;28;20054;-74
2022/05/16 11:16:41;;;;;;;6.07;2.30;;;26.20;80.20;;;;;;5017583;28;20051;-74
2022/05/16 11:19:42;;;;;;;7.07;2.20;;;26.10;80.10;;;;;;5024283;28;20064;-75
2022/05/16 11:22:31;;;;;;;8.57;2.60;;;26.00;78.90;;;;;;5027589;28;20625;-73
2022/05/16 11:25:18;;;;;;;12.25;2.28;;;25.90;77.80;;;;;;5024973;28;20128;-73
2022/05/16 11:28:27;;;;;;;8.60;2.97;;;25.70;78.50;;;;;;5030237;28;20483;-73
2022/05/16 11:31:11;;;;;;;9.23;2.15;;;25.50;79.20;;;;;;5046463;28;20072;-74
2022/05/16 11:33:51;;;;;;;9.85;2.65;;;25.30;79.20;;;;;;5023721;28;20049;-72
2022/05/16 11:36:49;;;;;;;6.30;2.55;;;25.10;80.50;;;;;;5031376;28;20053;-72
2022/05/16 11:39:25;;;;;;;9.85;2.10;;;25.00;82.00;;;;;;5034123;28;20112;-73
2022/05/16 11:42:08;;;;;;;8.48;2.35;;;24.90;81.30;;;;;;5031228;28;20037;-72
2022/05/16 11:44:48;;;;;;;8.68;2.72;;;24.70;84.00;;;;;;5024799;28;20041;-73
2022/05/16 11:47:34;;;;;;;9.77;2.40;;;24.60;84.70;;;;;;5018970;28;20085;-72
2022/05/16 11:50:41;;;;;;;6.78;2.70;;;24.60;86.70;;;;;;5027254;28;20091;-71
2022/05/16 11:53:35;;;;;;;6.35;2.10;;;24.50;88.60;;;;;;5028728;28;20042;-72
2022/05/16 12:01:40;;;;;;;9.52;2.25;;;24.20;88.30;;;;;;5024426;28;20073;-72
2022/05/16 12:04:24;;;;;;;7.25;2.70;;;24.10;90.20;;;;;;5025502;28;20057;-72
2022/05/16 12:07:02;;;;;;;8.30;2.58;;;24.10;91.10;;;;;;5051963;28;20076;-72
2022/05/16 12:09:31;;;;;;;10.18;2.53;;;24.00;91.10;;;;;;5020568;28;20041;-72
2022/05/16 12:12:01;;;;;;;9.13;2.88;;;24.00;91.80;;;;;;5049926;28;20543;-74
2022/05/16 12:14:40;;;;;;;10.45;2.95;;;23.90;92.40;;;;;;5028357;28;20053;-76
2022/05/16 12:17:16;;;;;;;11.52;2.97;;;23.90;92.90;;;;;;5043163;28;20045;-76
2022/05/16 12:19:46;;;;;;;10.55;3.28;;;23.90;93.20;;;;;;5021488;28;20115;-77
2022/05/16 12:22:13;;;;;;;7.43;2.78;;;23.80;93.00;;;;;;5034559;28;20041;-79
2022/05/16 12:24:41;;;;;;;11.20;2.80;;;23.70;93.10;;;;;;5018593;28;20053;-79
2022/05/16 12:27:28;;;;;;;7.85;2.38;;;23.60;93.20;;;;;;5026908;28;20504;-78
2022/05/16 12:29:57;;;;;;;8.30;3.00;;;23.70;93.80;;;;;;5030336;28;20128;-77
2022/05/16 12:32:31;;;;;;;7.53;3.13;;;23.70;93.70;;;;;;5022968;28;20049;-78
2022/05/16 12:35:01;;;;;;;11.52;3.90;;;23.60;93.70;;;;;;5056916;28;20202;-77
2022/05/16 12:37:27;;;;;;;8.63;3.47;;;23.60;93.50;;;;;;5023860;28;20432;-77
2022/05/16 12:40:17;;;;;;;11.98;3.67;;;23.60;93.80;;;;;;5016646;28;20049;-77
2022/05/16 12:43:09;;;;;;;13.65;3.65;;;23.60;93.50;;;;;;5027622;28;20440;-79
2022/05/16 12:46:14;;;;;;;8.98;3.38;;;23.50;93.50;;;;;;4998211;28;20190;-78
2022/05/16 12:48:48;;;;;;;13.05;4.07;;;23.50;93.80;;;;;;5022201;28;20084;-78
2022/05/16 12:51:20;;;;;;;9.90;3.53;;;23.40;93.60;;;;;;5018049;28;20057;-78
2022/05/16 12:54:10;;;;;;;12.80;4.70;;;23.40;93.90;;;;;;5019145;28;20037;-77
2022/05/16 12:56:54;;;;;;;9.77;3.47;;;23.50;94.00;;;;;;5030432;28;20504;-78
2022/05/16 12:59:38;;;;;;;11.75;3.72;;;23.60;94.40;;;;;;5015753;28;20041;-77
2022/05/16 13:02:22;;;;;;;10.80;3.30;;;23.70;94.60;;;;;;5025313;28;20064;-78
2022/05/16 13:05:04;;;;;;;7.80;3.38;;;23.90;93.80;;;;;;5025326;28;20413;-78
2022/05/16 13:07:50;;;;;;;10.60;3.45;;;24.00;93.50;;;;;;5028310;28;20042;-77
2022/05/16 13:10:39;;;;;;;11.45;3.90;;;24.10;93.10;;;;;;5022141;28;20053;-78
2022/05/16 13:13:33;;;;;;;12.45;4.25;;;24.20;92.90;;;;;;5026737;28;20092;-78
2022/05/16 13:16:15;;;;;;;9.07;3.33;;;24.40;92.70;;;;;;5028798;28;20488;-77
2022/05/16 13:18:51;;;;;;;9.30;4.15;;;24.50;92.80;;;;;;5029010;28;20143;-78
2022/05/16 13:21:18;;;;;;;11.20;3.90;;;24.60;92.50;;;;;;5028358;28;20508;-78
2022/05/16 13:23:44;;;;;;;15.93;4.40;;;24.70;92.60;;;;;;5025221;28;20120;-78
2022/05/16 13:31:48;;;;;;;11.95;3.97;;;24.90;92.90;;;;;;5020584;28;20049;-77
2022/05/16 13:34:26;;;;;;;10.82;4.03;;;24.90;92.70;;;;;;5025219;28;20041;-78
2022/05/16 13:36:52;;;;;;;15.07;4.53;;;24.80;92.80;;;;;;5018450;28;20052;-79
2022/05/16 13:39:19;;;;;;;12.63;4.70;;;24.70;93.10;;;;;;5028650;28;20045;-76
2022/05/16 13:41:55;;;;;;;11.30;3.75;;;24.60;93.10;;;;;;5030087;28;20037;-76
2022/05/16 13:44:20;;;;;;;10.98;4.25;;;24.50;93.20;;;;;;5020241;28;20049;-78
2022/05/16 13:46:46;;;;;;;11.02;4.60;;;24.40;93.20;;;;;;5022811;28;20370;-77
2022/05/16 13:49:12;;;;;;;11.55;3.80;;;24.40;93.20;;;;;;5017735;28;20417;-78